sensor_id;sensor_type;location;lat;lon;timestamp;temperature;humidity
78212;SHT31;67490;52.086;5.122;2023-03-12T00:02:34;5.92;57.03
78212;SHT31;67490;52.086;5.122;2023-03-12T00:05:19;5.96;57.18
78212;SHT31;67490;52.086;5.122;2023-03-12T00:08:04;5.87;57.46
78212;SHT31;67490;52.086;5.122;2023-03-12T00:10:49;5.89;57.59
78212;SHT31;67490;52.086;5.122;2023-03-12T00:13:33;5.89;57.47
78212;SHT31;67490;52.086;5.122;2023-03-12T00:16:19;5.86;57.67
78212;SHT31;67490;52.086;5.122;2023-03-12T00:19:05;5.80;59.65
78212;SHT31;67490;52.086;5.122;2023-03-12T00:21:49;5.99;57.01
78212;SHT31;67490;52.086;5.122;2023-03-12T00:24:34;6.06;57.30
78212;SHT31;67490;52.086;5.122;2023-03-12T00:27:18;6.10;59.24
78212;SHT31;67490;52.086;5.122;2023-03-12T00:30:04;6.07;57.64
78212;SHT31;67490;52.086;5.122;2023-03-12T00:32:49;6.02;57.41
78212;SHT31;67490;52.086;5.122;2023-03-12T00:35:36;6.02;58.33
78212;SHT31;67490;52.086;5.122;2023-03-12T00:38:21;5.92;59.31
78212;SHT31;67490;52.086;5.122;2023-03-12T00:41:06;5.95;58.41
78212;SHT31;67490;52.086;5.122;2023-03-12T00:43:51;5.99;57.76
78212;SHT31;67490;52.086;5.122;2023-03-12T00:46:35;5.96;57.75
78212;SHT31;67490;52.086;5.122;2023-03-12T00:49:20;5.85;59.10
78212;SHT31;67490;52.086;5.122;2023-03-12T00:52:06;5.78;60.21
78212;SHT31;67490;52.086;5.122;2023-03-12T00:54:50;5.73;59.15
78212;SHT31;67490;52.086;5.122;2023-03-12T00:57:35;5.75;58.88
78212;SHT31;67490;52.086;5.122;2023-03-12T01:00:20;5.69;60.58
78212;SHT31;67490;52.086;5.122;2023-03-12T01:03:05;5.76;59.24
78212;SHT31;67490;52.086;5.122;2023-03-12T01:05:49;5.66;59.78
78212;SHT31;67490;52.086;5.122;2023-03-12T01:08:39;5.55;60.00
78212;SHT31;67490;52.086;5.122;2023-03-12T01:11:23;5.60;60.33
78212;SHT31;67490;52.086;5.122;2023-03-12T01:14:08;5.66;60.67
78212;SHT31;67490;52.086;5.122;2023-03-12T01:16:52;5.76;60.97
78212;SHT31;67490;52.086;5.122;2023-03-12T01:19:36;5.82;60.64
78212;SHT31;67490;52.086;5.122;2023-03-12T01:22:21;5.78;59.99
78212;SHT31;67490;52.086;5.122;2023-03-12T01:25:08;5.75;60.42
78212;SHT31;67490;52.086;5.122;2023-03-12T01:27:52;5.87;60.63
78212;SHT31;67490;52.086;5.122;2023-03-12T01:30:36;5.83;62.08
78212;SHT31;67490;52.086;5.122;2023-03-12T01:33:21;5.96;59.88
78212;SHT31;67490;52.086;5.122;2023-03-12T01:36:15;6.00;60.25
78212;SHT31;67490;52.086;5.122;2023-03-12T01:39:00;5.99;59.92
78212;SHT31;67490;52.086;5.122;2023-03-12T01:41:46;6.07;60.07
78212;SHT31;67490;52.086;5.122;2023-03-12T01:44:52;5.97;60.61
78212;SHT31;67490;52.086;5.122;2023-03-12T01:47:37;6.06;60.02
78212;SHT31;67490;52.086;5.122;2023-03-12T01:50:21;6.00;60.47
78212;SHT31;67490;52.086;5.122;2023-03-12T01:53:06;5.90;60.37
78212;SHT31;67490;52.086;5.122;2023-03-12T01:55:51;5.97;61.84
78212;SHT31;67490;52.086;5.122;2023-03-12T01:58:41;6.05;60.48
78212;SHT31;67490;52.086;5.122;2023-03-12T02:01:28;6.09;59.91
78212;SHT31;67490;52.086;5.122;2023-03-12T02:04:15;5.97;60.23
78212;SHT31;67490;52.086;5.122;2023-03-12T02:07:04;5.86;60.34
78212;SHT31;67490;52.086;5.122;2023-03-12T02:09:50;5.95;61.07
78212;SHT31;67490;52.086;5.122;2023-03-12T02:12:35;5.96;63.09
78212;SHT31;67490;52.086;5.122;2023-03-12T02:15:21;6.16;61.59
78212;SHT31;67490;52.086;5.122;2023-03-12T02:18:08;6.05;60.92
78212;SHT31;67490;52.086;5.122;2023-03-12T02:21:00;6.14;62.62
78212;SHT31;67490;52.086;5.122;2023-03-12T02:23:55;6.14;60.86
78212;SHT31;67490;52.086;5.122;2023-03-12T02:26:41;6.21;60.01
78212;SHT31;67490;52.086;5.122;2023-03-12T02:29:30;6.13;60.66
78212;SHT31;67490;52.086;5.122;2023-03-12T02:32:22;6.13;59.98
78212;SHT31;67490;52.086;5.122;2023-03-12T02:35:07;6.11;60.39
78212;SHT31;67490;52.086;5.122;2023-03-12T02:37:54;6.09;61.41
78212;SHT31;67490;52.086;5.122;2023-03-12T02:40:43;6.10;61.68
78212;SHT31;67490;52.086;5.122;2023-03-12T02:43:30;5.99;60.80
78212;SHT31;67490;52.086;5.122;2023-03-12T02:46:15;5.79;61.11
78212;SHT31;67490;52.086;5.122;2023-03-12T02:49:00;5.86;62.21
78212;SHT31;67490;52.086;5.122;2023-03-12T02:51:45;5.78;61.28
78212;SHT31;67490;52.086;5.122;2023-03-12T02:54:30;5.78;61.17
78212;SHT31;67490;52.086;5.122;2023-03-12T02:57:14;5.89;61.31
78212;SHT31;67490;52.086;5.122;2023-03-12T03:00:00;5.95;62.58
78212;SHT31;67490;52.086;5.122;2023-03-12T03:02:44;6.00;63.46
78212;SHT31;67490;52.086;5.122;2023-03-12T03:05:29;6.00;60.76
78212;SHT31;67490;52.086;5.122;2023-03-12T03:08:13;5.97;60.37
78212;SHT31;67490;52.086;5.122;2023-03-12T03:10:58;5.82;62.84
78212;SHT31;67490;52.086;5.122;2023-03-12T03:13:43;5.96;62.58
78212;SHT31;67490;52.086;5.122;2023-03-12T03:16:29;6.03;60.77
78212;SHT31;67490;52.086;5.122;2023-03-12T03:19:13;5.96;60.77
78212;SHT31;67490;52.086;5.122;2023-03-12T03:21:57;5.96;60.80
78212;SHT31;67490;52.086;5.122;2023-03-12T03:24:42;5.99;61.59
78212;SHT31;67490;52.086;5.122;2023-03-12T03:27:26;6.07;61.86
78212;SHT31;67490;52.086;5.122;2023-03-12T03:30:11;6.23;61.39
78212;SHT31;67490;52.086;5.122;2023-03-12T03:32:57;6.14;60.50
78212;SHT31;67490;52.086;5.122;2023-03-12T03:35:41;6.18;61.23
78212;SHT31;67490;52.086;5.122;2023-03-12T03:38:26;6.27;61.36
78212;SHT31;67490;52.086;5.122;2023-03-12T03:41:11;6.31;61.57
78212;SHT31;67490;52.086;5.122;2023-03-12T03:43:56;6.23;61.05
78212;SHT31;67490;52.086;5.122;2023-03-12T03:46:41;6.23;60.56
78212;SHT31;67490;52.086;5.122;2023-03-12T03:49:27;6.17;62.56
78212;SHT31;67490;52.086;5.122;2023-03-12T03:52:11;6.31;62.70
78212;SHT31;67490;52.086;5.122;2023-03-12T03:54:55;6.40;62.96
78212;SHT31;67490;52.086;5.122;2023-03-12T03:57:40;6.51;63.58
78212;SHT31;67490;52.086;5.122;2023-03-12T04:00:25;6.41;62.55
78212;SHT31;67490;52.086;5.122;2023-03-12T04:03:09;6.45;63.40
78212;SHT31;67490;52.086;5.122;2023-03-12T04:05:57;6.45;63.04
78212;SHT31;67490;52.086;5.122;2023-03-12T04:08:42;6.33;64.46
78212;SHT31;67490;52.086;5.122;2023-03-12T04:11:26;6.37;64.75
78212;SHT31;67490;52.086;5.122;2023-03-12T04:14:10;6.40;64.41
78212;SHT31;67490;52.086;5.122;2023-03-12T04:16:55;6.44;64.61
78212;SHT31;67490;52.086;5.122;2023-03-12T04:19:40;6.49;64.79
78212;SHT31;67490;52.086;5.122;2023-03-12T04:22:25;6.49;64.75
78212;SHT31;67490;52.086;5.122;2023-03-12T04:25:10;6.54;64.38
78212;SHT31;67490;52.086;5.122;2023-03-12T04:27:55;6.65;64.05
78212;SHT31;67490;52.086;5.122;2023-03-12T04:30:39;6.47;64.93
78212;SHT31;67490;52.086;5.122;2023-03-12T04:33:24;6.40;65.19
78212;SHT31;67490;52.086;5.122;2023-03-12T04:36:11;6.45;64.90
78212;SHT31;67490;52.086;5.122;2023-03-12T04:38:57;6.44;65.46
78212;SHT31;67490;52.086;5.122;2023-03-12T04:41:42;6.55;64.91
78212;SHT31;67490;52.086;5.122;2023-03-12T04:44:26;6.47;64.66
78212;SHT31;67490;52.086;5.122;2023-03-12T04:47:10;6.34;65.34
78212;SHT31;67490;52.086;5.122;2023-03-12T04:49:54;6.40;65.34
78212;SHT31;67490;52.086;5.122;2023-03-12T04:52:39;6.38;65.44
78212;SHT31;67490;52.086;5.122;2023-03-12T04:55:25;6.36;65.70
78212;SHT31;67490;52.086;5.122;2023-03-12T04:58:09;6.37;65.81
78212;SHT31;67490;52.086;5.122;2023-03-12T05:00:54;6.30;66.29
78212;SHT31;67490;52.086;5.122;2023-03-12T05:03:38;6.40;65.99
78212;SHT31;67490;52.086;5.122;2023-03-12T05:06:23;6.36;66.15
78212;SHT31;67490;52.086;5.122;2023-03-12T05:09:08;6.41;65.40
78212;SHT31;67490;52.086;5.122;2023-03-12T05:11:53;6.27;65.90
78212;SHT31;67490;52.086;5.122;2023-03-12T05:14:38;6.31;66.04
78212;SHT31;67490;52.086;5.122;2023-03-12T05:17:22;6.26;65.98
78212;SHT31;67490;52.086;5.122;2023-03-12T05:20:08;6.30;66.84
78212;SHT31;67490;52.086;5.122;2023-03-12T05:22:53;6.37;66.37
78212;SHT31;67490;52.086;5.122;2023-03-12T05:25:38;6.26;66.52
78212;SHT31;67490;52.086;5.122;2023-03-12T05:28:25;6.41;66.91
78212;SHT31;67490;52.086;5.122;2023-03-12T05:31:13;6.40;65.90
78212;SHT31;67490;52.086;5.122;2023-03-12T05:33:57;6.38;66.43
78212;SHT31;67490;52.086;5.122;2023-03-12T05:36:42;6.33;66.02
78212;SHT31;67490;52.086;5.122;2023-03-12T05:39:26;6.40;66.89
78212;SHT31;67490;52.086;5.122;2023-03-12T05:42:12;6.38;66.43
78212;SHT31;67490;52.086;5.122;2023-03-12T05:44:57;6.37;67.18
78212;SHT31;67490;52.086;5.122;2023-03-12T05:47:42;6.54;67.09
78212;SHT31;67490;52.086;5.122;2023-03-12T05:50:26;6.64;67.14
78212;SHT31;67490;52.086;5.122;2023-03-12T05:53:11;6.57;66.88
78212;SHT31;67490;52.086;5.122;2023-03-12T05:56:01;6.57;66.93
78212;SHT31;67490;52.086;5.122;2023-03-12T05:58:47;6.49;67.90
78212;SHT31;67490;52.086;5.122;2023-03-12T06:01:34;6.54;67.88
78212;SHT31;67490;52.086;5.122;2023-03-12T06:04:18;6.47;68.48
78212;SHT31;67490;52.086;5.122;2023-03-12T06:07:04;6.27;70.17
78212;SHT31;67490;52.086;5.122;2023-03-12T06:09:48;6.21;70.75
78212;SHT31;67490;52.086;5.122;2023-03-12T06:12:33;6.09;71.71
78212;SHT31;67490;52.086;5.122;2023-03-12T06:15:17;6.06;72.37
78212;SHT31;67490;52.086;5.122;2023-03-12T06:18:03;6.23;73.01
78212;SHT31;67490;52.086;5.122;2023-03-12T06:20:47;6.38;72.83
78212;SHT31;67490;52.086;5.122;2023-03-12T06:23:32;6.40;71.81
78212;SHT31;67490;52.086;5.122;2023-03-12T06:26:18;6.24;72.71
78212;SHT31;67490;52.086;5.122;2023-03-12T06:29:03;6.10;73.39
78212;SHT31;67490;52.086;5.122;2023-03-12T06:31:47;6.16;74.44
78212;SHT31;67490;52.086;5.122;2023-03-12T06:34:36;6.20;74.38
78212;SHT31;67490;52.086;5.122;2023-03-12T06:37:20;6.20;74.19
78212;SHT31;67490;52.086;5.122;2023-03-12T06:40:06;6.18;74.49
78212;SHT31;67490;52.086;5.122;2023-03-12T06:42:53;6.07;75.02
78212;SHT31;67490;52.086;5.122;2023-03-12T06:45:38;5.95;75.92
78212;SHT31;67490;52.086;5.122;2023-03-12T06:48:25;6.07;76.60
78212;SHT31;67490;52.086;5.122;2023-03-12T06:51:12;6.06;76.26
78212;SHT31;67490;52.086;5.122;2023-03-12T06:53:57;6.17;75.90
78212;SHT31;67490;52.086;5.122;2023-03-12T06:56:43;6.16;76.17
78212;SHT31;67490;52.086;5.122;2023-03-12T06:59:28;6.21;76.18
78212;SHT31;67490;52.086;5.122;2023-03-12T07:02:12;6.17;75.91
78212;SHT31;67490;52.086;5.122;2023-03-12T07:04:57;6.10;77.19
78212;SHT31;67490;52.086;5.122;2023-03-12T07:07:43;6.02;77.40
78212;SHT31;67490;52.086;5.122;2023-03-12T07:10:28;6.16;76.91
78212;SHT31;67490;52.086;5.122;2023-03-12T07:13:12;6.13;76.22
78212;SHT31;67490;52.086;5.122;2023-03-12T07:15:57;6.13;77.17
78212;SHT31;67490;52.086;5.122;2023-03-12T07:18:42;6.20;76.65
78212;SHT31;67490;52.086;5.122;2023-03-12T07:21:27;6.24;76.89
78212;SHT31;67490;52.086;5.122;2023-03-12T07:24:13;6.13;77.33
78212;SHT31;67490;52.086;5.122;2023-03-12T07:26:57;6.24;76.92
78212;SHT31;67490;52.086;5.122;2023-03-12T07:29:41;6.31;76.67
78212;SHT31;67490;52.086;5.122;2023-03-12T07:32:25;6.30;76.84
78212;SHT31;67490;52.086;5.122;2023-03-12T07:35:10;6.44;76.30
78212;SHT31;67490;52.086;5.122;2023-03-12T07:37:54;6.40;76.52
78212;SHT31;67490;52.086;5.122;2023-03-12T07:40:40;6.42;76.58
78212;SHT31;67490;52.086;5.122;2023-03-12T07:43:26;6.36;76.94
78212;SHT31;67490;52.086;5.122;2023-03-12T07:46:10;6.38;77.20
78212;SHT31;67490;52.086;5.122;2023-03-12T07:48:54;6.38;77.17
78212;SHT31;67490;52.086;5.122;2023-03-12T07:51:38;6.54;77.06
78212;SHT31;67490;52.086;5.122;2023-03-12T07:54:23;6.47;77.12
78212;SHT31;67490;52.086;5.122;2023-03-12T07:57:13;6.45;77.64
78212;SHT31;67490;52.086;5.122;2023-03-12T07:59:58;6.37;78.11
78212;SHT31;67490;52.086;5.122;2023-03-12T08:02:42;6.45;78.56
78212;SHT31;67490;52.086;5.122;2023-03-12T08:05:26;6.63;77.89
78212;SHT31;67490;52.086;5.122;2023-03-12T08:08:11;6.74;77.59
78212;SHT31;67490;52.086;5.122;2023-03-12T08:10:56;6.55;78.63
78212;SHT31;67490;52.086;5.122;2023-03-12T08:13:42;6.63;79.01
78212;SHT31;67490;52.086;5.122;2023-03-12T08:16:26;6.61;80.90
78212;SHT31;67490;52.086;5.122;2023-03-12T08:19:10;6.64;82.95
78212;SHT31;67490;52.086;5.122;2023-03-12T08:21:54;6.84;80.73
78212;SHT31;67490;52.086;5.122;2023-03-12T08:24:39;7.07;79.57
78212;SHT31;67490;52.086;5.122;2023-03-12T08:27:23;7.38;78.02
78212;SHT31;67490;52.086;5.122;2023-03-12T08:30:11;7.31;77.93
78212;SHT31;67490;52.086;5.122;2023-03-12T08:32:56;7.12;78.78
78212;SHT31;67490;52.086;5.122;2023-03-12T08:35:41;7.06;78.59
78212;SHT31;67490;52.086;5.122;2023-03-12T08:38:25;7.30;77.98
78212;SHT31;67490;52.086;5.122;2023-03-12T08:41:11;7.44;78.32
78212;SHT31;67490;52.086;5.122;2023-03-12T08:43:55;7.42;78.31
78212;SHT31;67490;52.086;5.122;2023-03-12T08:46:41;7.42;78.98
78212;SHT31;67490;52.086;5.122;2023-03-12T08:49:25;7.31;78.91
78212;SHT31;67490;52.086;5.122;2023-03-12T08:52:10;7.06;80.03
78212;SHT31;67490;52.086;5.122;2023-03-12T08:54:54;6.91;81.28
78212;SHT31;67490;52.086;5.122;2023-03-12T08:57:39;7.00;81.59
78212;SHT31;67490;52.086;5.122;2023-03-12T09:00:24;6.85;81.88
78212;SHT31;67490;52.086;5.122;2023-03-12T09:03:10;7.10;82.39
78212;SHT31;67490;52.086;5.122;2023-03-12T09:06:02;7.06;81.61
78212;SHT31;67490;52.086;5.122;2023-03-12T09:08:47;7.23;82.29
78212;SHT31;67490;52.086;5.122;2023-03-12T09:11:33;7.43;81.24
78212;SHT31;67490;52.086;5.122;2023-03-12T09:14:17;7.40;81.74
78212;SHT31;67490;52.086;5.122;2023-03-12T09:17:02;7.63;81.30
78212;SHT31;67490;52.086;5.122;2023-03-12T09:19:48;7.50;82.61
78212;SHT31;67490;52.086;5.122;2023-03-12T09:22:32;7.63;82.36
78212;SHT31;67490;52.086;5.122;2023-03-12T09:25:20;7.74;81.33
78212;SHT31;67490;52.086;5.122;2023-03-12T09:28:07;7.96;81.37
78212;SHT31;67490;52.086;5.122;2023-03-12T09:30:51;7.79;81.73
78212;SHT31;67490;52.086;5.122;2023-03-12T09:33:36;7.91;81.65
78212;SHT31;67490;52.086;5.122;2023-03-12T09:36:22;7.84;82.81
78212;SHT31;67490;52.086;5.122;2023-03-12T09:39:07;7.67;83.50
78212;SHT31;67490;52.086;5.122;2023-03-12T09:41:51;7.96;82.82
78212;SHT31;67490;52.086;5.122;2023-03-12T09:44:42;8.09;83.33
78212;SHT31;67490;52.086;5.122;2023-03-12T09:47:31;8.15;82.85
78212;SHT31;67490;52.086;5.122;2023-03-12T09:50:22;8.13;84.72
78212;SHT31;67490;52.086;5.122;2023-03-12T09:53:16;8.26;83.93
78212;SHT31;67490;52.086;5.122;2023-03-12T09:56:04;8.63;84.35
78212;SHT31;67490;52.086;5.122;2023-03-12T09:58:53;8.64;83.23
78212;SHT31;67490;52.086;5.122;2023-03-12T10:01:46;8.53;84.06
78212;SHT31;67490;52.086;5.122;2023-03-12T10:04:43;8.77;83.48
78212;SHT31;67490;52.086;5.122;2023-03-12T10:07:35;8.67;84.33
78212;SHT31;67490;52.086;5.122;2023-03-12T10:10:44;8.76;85.91
78212;SHT31;67490;52.086;5.122;2023-03-12T10:13:47;8.88;85.13
78212;SHT31;67490;52.086;5.122;2023-03-12T10:16:47;9.03;84.79
78212;SHT31;67490;52.086;5.122;2023-03-12T10:19:49;9.08;84.29
78212;SHT31;67490;52.086;5.122;2023-03-12T10:22:48;9.11;84.51
78212;SHT31;67490;52.086;5.122;2023-03-12T10:25:42;9.40;83.50
78212;SHT31;67490;52.086;5.122;2023-03-12T10:28:33;9.50;83.65
78212;SHT31;67490;52.086;5.122;2023-03-12T10:31:22;9.50;83.77
78212;SHT31;67490;52.086;5.122;2023-03-12T10:34:16;9.55;83.83
78212;SHT31;67490;52.086;5.122;2023-03-12T10:37:13;9.56;84.09
78212;SHT31;67490;52.086;5.122;2023-03-12T10:39:58;9.62;84.11
78212;SHT31;67490;52.086;5.122;2023-03-12T10:42:47;9.84;83.55
78212;SHT31;67490;52.086;5.122;2023-03-12T10:45:39;9.80;83.69
78212;SHT31;67490;52.086;5.122;2023-03-12T10:48:25;9.98;83.31
78212;SHT31;67490;52.086;5.122;2023-03-12T10:51:11;10.15;82.73
78212;SHT31;67490;52.086;5.122;2023-03-12T10:53:56;9.77;83.57
78212;SHT31;67490;52.086;5.122;2023-03-12T10:56:48;10.04;84.97
78212;SHT31;67490;52.086;5.122;2023-03-12T10:59:37;10.00;84.60
78212;SHT31;67490;52.086;5.122;2023-03-12T11:02:31;10.11;84.91
78212;SHT31;67490;52.086;5.122;2023-03-12T11:05:23;10.20;84.95
78212;SHT31;67490;52.086;5.122;2023-03-12T11:08:19;10.22;84.03
78212;SHT31;67490;52.086;5.122;2023-03-12T11:11:04;10.46;83.87
78212;SHT31;67490;52.086;5.122;2023-03-12T11:14:05;10.31;83.16
78212;SHT31;67490;52.086;5.122;2023-03-12T11:16:53;10.11;83.26
78212;SHT31;67490;52.086;5.122;2023-03-12T11:19:37;10.15;83.50
78212;SHT31;67490;52.086;5.122;2023-03-12T11:22:29;10.30;83.15
78212;SHT31;67490;52.086;5.122;2023-03-12T11:25:21;10.37;83.19
78212;SHT31;67490;52.086;5.122;2023-03-12T11:28:17;10.33;83.64
78212;SHT31;67490;52.086;5.122;2023-03-12T11:31:08;10.18;84.09
78212;SHT31;67490;52.086;5.122;2023-03-12T11:34:01;10.18;83.56
78212;SHT31;67490;52.086;5.122;2023-03-12T11:36:55;10.11;84.34
78212;SHT31;67490;52.086;5.122;2023-03-12T11:40:08;10.30;84.22
78212;SHT31;67490;52.086;5.122;2023-03-12T11:43:11;10.21;84.26
78212;SHT31;67490;52.086;5.122;2023-03-12T11:46:15;10.14;84.86
78212;SHT31;67490;52.086;5.122;2023-03-12T11:49:14;10.30;84.70
78212;SHT31;67490;52.086;5.122;2023-03-12T11:52:07;10.48;83.90
78212;SHT31;67490;52.086;5.122;2023-03-12T11:55:15;10.59;83.36
78212;SHT31;67490;52.086;5.122;2023-03-12T12:01:35;10.41;83.94
78212;SHT31;67490;52.086;5.122;2023-03-12T12:05:06;10.54;83.61
78212;SHT31;67490;52.086;5.122;2023-03-12T12:08:13;10.66;83.33
78212;SHT31;67490;52.086;5.122;2023-03-12T12:11:07;10.91;82.63
78212;SHT31;67490;52.086;5.122;2023-03-12T12:14:07;10.95;82.09
78212;SHT31;67490;52.086;5.122;2023-03-12T12:17:12;10.73;82.52
78212;SHT31;67490;52.086;5.122;2023-03-12T12:20:18;10.89;82.08
78212;SHT31;67490;52.086;5.122;2023-03-12T12:23:15;11.00;82.20
78212;SHT31;67490;52.086;5.122;2023-03-12T12:26:09;11.03;81.51
78212;SHT31;67490;52.086;5.122;2023-03-12T12:29:09;11.03;81.22
78212;SHT31;67490;52.086;5.122;2023-03-12T12:31:56;11.28;80.43
78212;SHT31;67490;52.086;5.122;2023-03-12T12:34:57;11.27;80.06
78212;SHT31;67490;52.086;5.122;2023-03-12T12:37:51;11.26;80.53
78212;SHT31;67490;52.086;5.122;2023-03-12T12:40:39;11.22;80.23
78212;SHT31;67490;52.086;5.122;2023-03-12T12:43:27;11.23;80.29
78212;SHT31;67490;52.086;5.122;2023-03-12T12:46:16;11.19;80.04
78212;SHT31;67490;52.086;5.122;2023-03-12T12:49:05;11.28;79.91
78212;SHT31;67490;52.086;5.122;2023-03-12T12:51:57;11.35;79.33
78212;SHT31;67490;52.086;5.122;2023-03-12T12:54:53;11.31;79.56
78212;SHT31;67490;52.086;5.122;2023-03-12T12:57:43;11.54;79.14
78212;SHT31;67490;52.086;5.122;2023-03-12T13:00:40;11.57;79.01
78212;SHT31;67490;52.086;5.122;2023-03-12T13:03:27;11.41;78.89
78212;SHT31;67490;52.086;5.122;2023-03-12T13:06:12;11.28;79.21
78212;SHT31;67490;52.086;5.122;2023-03-12T13:09:00;11.40;78.73
78212;SHT31;67490;52.086;5.122;2023-03-12T13:11:46;11.62;78.16
78212;SHT31;67490;52.086;5.122;2023-03-12T13:14:38;11.47;78.39
78212;SHT31;67490;52.086;5.122;2023-03-12T13:17:28;11.55;77.98
78212;SHT31;67490;52.086;5.122;2023-03-12T13:20:16;11.50;78.13
78212;SHT31;67490;52.086;5.122;2023-03-12T13:23:22;11.35;78.13
78212;SHT31;67490;52.086;5.122;2023-03-12T13:26:19;11.26;78.18
78212;SHT31;67490;52.086;5.122;2023-03-12T13:29:21;11.31;78.16
78212;SHT31;67490;52.086;5.122;2023-03-12T13:32:35;11.62;77.41
78212;SHT31;67490;52.086;5.122;2023-03-12T13:35:30;11.75;76.53
78212;SHT31;67490;52.086;5.122;2023-03-12T13:38:33;11.95;75.60
78212;SHT31;67490;52.086;5.122;2023-03-12T13:41:30;12.03;75.33
78212;SHT31;67490;52.086;5.122;2023-03-12T13:44:30;12.18;75.13
78212;SHT31;67490;52.086;5.122;2023-03-12T13:47:25;12.37;74.55
78212;SHT31;67490;52.086;5.122;2023-03-12T13:50:14;12.44;74.30
78212;SHT31;67490;52.086;5.122;2023-03-12T13:53:05;12.67;72.98
78212;SHT31;67490;52.086;5.122;2023-03-12T13:56:00;12.64;72.64
78212;SHT31;67490;52.086;5.122;2023-03-12T13:58:53;12.79;71.55
78212;SHT31;67490;52.086;5.122;2023-03-12T14:01:42;12.73;71.53
78212;SHT31;67490;52.086;5.122;2023-03-12T14:04:33;12.67;71.64
78212;SHT31;67490;52.086;5.122;2023-03-12T14:07:40;12.56;71.04
78212;SHT31;67490;52.086;5.122;2023-03-12T14:10:36;12.54;70.51
78212;SHT31;67490;52.086;5.122;2023-03-12T14:13:44;12.67;69.99
78212;SHT31;67490;52.086;5.122;2023-03-12T14:16:41;12.29;70.33
78212;SHT31;67490;52.086;5.122;2023-03-12T14:19:32;12.22;70.18
78212;SHT31;67490;52.086;5.122;2023-03-12T14:22:18;12.11;70.01
78212;SHT31;67490;52.086;5.122;2023-03-12T14:25:12;12.22;69.20
78212;SHT31;67490;52.086;5.122;2023-03-12T14:27:57;12.08;70.43
78212;SHT31;67490;52.086;5.122;2023-03-12T14:30:49;12.43;70.10
78212;SHT31;67490;52.086;5.122;2023-03-12T14:33:50;12.49;68.98
78212;SHT31;67490;52.086;5.122;2023-03-12T14:36:40;12.49;67.88
78212;SHT31;67490;52.086;5.122;2023-03-12T14:39:31;12.20;68.69
78212;SHT31;67490;52.086;5.122;2023-03-12T14:42:21;12.49;68.72
78212;SHT31;67490;52.086;5.122;2023-03-12T14:45:12;12.50;69.56
78212;SHT31;67490;52.086;5.122;2023-03-12T14:47:57;12.28;70.85
78212;SHT31;67490;52.086;5.122;2023-03-12T14:50:43;12.16;71.25
78212;SHT31;67490;52.086;5.122;2023-03-12T14:53:30;12.11;71.13
78212;SHT31;67490;52.086;5.122;2023-03-12T14:56:22;12.13;70.86
78212;SHT31;67490;52.086;5.122;2023-03-12T14:59:21;12.25;70.58
78212;SHT31;67490;52.086;5.122;2023-03-12T15:02:13;12.18;70.93
78212;SHT31;67490;52.086;5.122;2023-03-12T15:05:00;12.13;70.97
78212;SHT31;67490;52.086;5.122;2023-03-12T15:07:48;12.15;69.91
78212;SHT31;67490;52.086;5.122;2023-03-12T15:10:33;12.29;70.04
78212;SHT31;67490;52.086;5.122;2023-03-12T15:13:20;12.25;69.81
78212;SHT31;67490;52.086;5.122;2023-03-12T15:16:06;12.23;69.68
78212;SHT31;67490;52.086;5.122;2023-03-12T15:18:51;12.36;69.50
78212;SHT31;67490;52.086;5.122;2023-03-12T15:21:36;12.37;69.55
78212;SHT31;67490;52.086;5.122;2023-03-12T15:24:21;12.33;69.32
78212;SHT31;67490;52.086;5.122;2023-03-12T15:27:30;12.40;69.61
78212;SHT31;67490;52.086;5.122;2023-03-12T15:30:22;12.54;69.35
78212;SHT31;67490;52.086;5.122;2023-03-12T15:33:11;12.44;69.47
78212;SHT31;67490;52.086;5.122;2023-03-12T15:36:00;12.19;70.40
78212;SHT31;67490;52.086;5.122;2023-03-12T15:38:49;12.18;70.13
78212;SHT31;67490;52.086;5.122;2023-03-12T15:41:43;12.01;70.31
78212;SHT31;67490;52.086;5.122;2023-03-12T15:44:45;12.25;69.94
78212;SHT31;67490;52.086;5.122;2023-03-12T15:47:32;12.23;69.56
78212;SHT31;67490;52.086;5.122;2023-03-12T15:50:28;12.16;69.75
78212;SHT31;67490;52.086;5.122;2023-03-12T15:53:26;12.13;69.89
78212;SHT31;67490;52.086;5.122;2023-03-12T15:56:21;12.23;69.35
78212;SHT31;67490;52.086;5.122;2023-03-12T15:59:22;12.33;69.31
78212;SHT31;67490;52.086;5.122;2023-03-12T16:02:10;12.43;69.50
78212;SHT31;67490;52.086;5.122;2023-03-12T16:04:54;12.11;70.09
78212;SHT31;67490;52.086;5.122;2023-03-12T16:07:39;12.26;69.77
78212;SHT31;67490;52.086;5.122;2023-03-12T16:10:26;12.28;69.78
78212;SHT31;67490;52.086;5.122;2023-03-12T16:13:14;12.39;69.39
78212;SHT31;67490;52.086;5.122;2023-03-12T16:16:00;12.19;69.83
78212;SHT31;67490;52.086;5.122;2023-03-12T16:18:45;12.37;69.84
78212;SHT31;67490;52.086;5.122;2023-03-12T16:21:29;12.08;70.87
78212;SHT31;67490;52.086;5.122;2023-03-12T16:24:13;12.23;70.61
78212;SHT31;67490;52.086;5.122;2023-03-12T16:27:02;12.09;71.05
78212;SHT31;67490;52.086;5.122;2023-03-12T16:29:50;12.11;71.21
78212;SHT31;67490;52.086;5.122;2023-03-12T16:32:36;11.96;71.47
78212;SHT31;67490;52.086;5.122;2023-03-12T16:35:20;12.03;71.25
78212;SHT31;67490;52.086;5.122;2023-03-12T16:38:05;11.86;71.76
78212;SHT31;67490;52.086;5.122;2023-03-12T16:40:51;12.22;70.99
78212;SHT31;67490;52.086;5.122;2023-03-12T16:43:36;11.74;72.54
78212;SHT31;67490;52.086;5.122;2023-03-12T16:46:21;11.65;73.22
78212;SHT31;67490;52.086;5.122;2023-03-12T16:49:13;11.82;73.00
78212;SHT31;67490;52.086;5.122;2023-03-12T16:51:58;11.58;73.11
78212;SHT31;67490;52.086;5.122;2023-03-12T16:54:43;11.51;73.72
78212;SHT31;67490;52.086;5.122;2023-03-12T16:57:33;11.61;73.12
78212;SHT31;67490;52.086;5.122;2023-03-12T17:00:20;11.70;73.22
78212;SHT31;67490;52.086;5.122;2023-03-12T17:03:05;11.24;74.53
78212;SHT31;67490;52.086;5.122;2023-03-12T17:05:50;11.31;74.28
78212;SHT31;67490;52.086;5.122;2023-03-12T17:08:35;11.22;74.60
78212;SHT31;67490;52.086;5.122;2023-03-12T17:11:23;11.24;74.86
78212;SHT31;67490;52.086;5.122;2023-03-12T17:14:16;11.40;74.31
78212;SHT31;67490;52.086;5.122;2023-03-12T17:17:01;11.27;74.82
78212;SHT31;67490;52.086;5.122;2023-03-12T17:19:45;11.24;74.88
78212;SHT31;67490;52.086;5.122;2023-03-12T17:22:31;11.33;74.61
78212;SHT31;67490;52.086;5.122;2023-03-12T17:25:21;11.12;75.54
78212;SHT31;67490;52.086;5.122;2023-03-12T17:28:06;11.09;75.28
78212;SHT31;67490;52.086;5.122;2023-03-12T17:30:50;11.12;74.92
78212;SHT31;67490;52.086;5.122;2023-03-12T17:33:35;11.17;74.76
78212;SHT31;67490;52.086;5.122;2023-03-12T17:36:21;11.23;74.27
78212;SHT31;67490;52.086;5.122;2023-03-12T17:39:07;11.22;73.98
78212;SHT31;67490;52.086;5.122;2023-03-12T17:41:52;11.34;73.43
78212;SHT31;67490;52.086;5.122;2023-03-12T17:44:36;11.10;74.14
78212;SHT31;67490;52.086;5.122;2023-03-12T17:47:22;11.10;74.09
78212;SHT31;67490;52.086;5.122;2023-03-12T17:50:07;11.10;74.94
78212;SHT31;67490;52.086;5.122;2023-03-12T17:52:52;11.10;74.48
78212;SHT31;67490;52.086;5.122;2023-03-12T17:55:39;11.10;74.82
78212;SHT31;67490;52.086;5.122;2023-03-12T17:58:23;11.04;75.15